Maersk Iowa — KABL — position and weather

sailwx.info

Track history (hours):
 
Tides and Currents Weather Stations Pressure Air Temp Water Temp Dewpoint Dewpoint Depression Visibility Wind Speed Wind Dir Waves Ship Positions

Maersk Iowa

Owner: FARRELL LINES INC, Norfolk, VA. More information available from US FCC via Universal Licensing System and Coast Guard Vessel Documentation Center.

Last reported at 2016-Feb-11 12:33 UTC. Time now 2016-Feb-11 12:57 UTC.
Position N 49°28' E 000°09'.

Length 292 m; draft 11.8 m.

Type: Ship (hazmat cat A). MMSI: 367606000.

Date/timePositionNaut miles runAvg speedWind from/ knotsBaromVisibWave heightAir tempDewpointWater temp
2016-Feb-11 12:33N 49°28' E 000°09'1 1.4
2016-Feb-11 11:33N 49°28' E 000°07'1111.2
2016-Feb-11 10:33N 49°34' W 000°07'4 3.6
2016-Feb-11 09:33N 49°32' W 000°04'9 9.4
2016-Feb-11 08:33N 49°27' E 000°09'2 1.8
2016-Feb-11 07:33N 49°28' E 000°06'1010.4
2016-Feb-11 06:33N 49°34' W 000°07'1 1.3
2016-Feb-11 05:33N 49°34' W 000°08'0 0.0
2016-Feb-11 04:33N 49°34' W 000°08'0 0.1
2016-Feb-11 03:33N 49°35' W 000°08'0 0.1
2016-Feb-11 02:33N 49°35' W 000°08'0 0.2
2016-Feb-11 01:33N 49°35' W 000°08'0 0.0
2016-Feb-11 00:33N 49°35' W 000°08'0 0.0
2016-Feb-10 23:33N 49°35' W 000°08'0 0.0
2016-Feb-10 22:33N 49°35' W 000°08'0 0.1
2016-Feb-10 21:33N 49°35' W 000°08'0 0.1
2016-Feb-10 20:33N 49°34' W 000°08'0 0.1
2016-Feb-10 19:33N 49°34' W 000°08'0 0.2
2016-Feb-10 18:33N 49°34' W 000°08'0 0.2
2016-Feb-10 17:33N 49°35' W 000°08'0 0.1
2016-Feb-10 16:33N 49°35' W 000°08'0 0.2
2016-Feb-10 15:33N 49°35' W 000°08'3 3.2
2016-Feb-10 14:33N 49°37' W 000°05'1211.4
2016-Feb-10 13:33N 49°48' E 000°02'1211.9
2016-Feb-10 12:33N 49°57' E 000°13'52 7.9
2016-Feb-10 06:00N 50°42' E 000°54'19 7.8 270 / 30995.010.8 9.0 4.511.0
2016-Feb-10 03:33N 50°54' E 001°17'7 6.1
2016-Feb-10 02:21N 50°60' E 001°25'4 4.9
2016-Feb-10 01:33N 51°03' E 001°29'5 4.5
2016-Feb-10 00:33N 51°06' E 001°33'5 5.2
2016-Feb-09 23:33N 51°10' E 001°38'7 7.1
2016-Feb-09 22:33N 51°17' E 001°41'10 9.7
2016-Feb-09 21:33N 51°27' E 001°45'1010.3
2016-Feb-09 20:33N 51°37' E 001°45'1010.0
2016-Feb-09 19:33N 51°47' E 001°43'8 8.0
2016-Feb-09 18:33N 51°52' E 001°34'9 8.7
2016-Feb-09 17:33N 51°55' E 001°20'3 2.7
2016-Feb-09 16:32N 51°58' E 001°18'0 0.0
2016-Feb-09 15:32N 51°58' E 001°18'0 0.0
2016-Feb-09 14:32N 51°58' E 001°18'0 0.0
2016-Feb-09 13:32N 51°58' E 001°18'0 0.0
2016-Feb-09 12:32N 51°58' E 001°18'0 0.0
2016-Feb-09 11:32N 51°58' E 001°18'0 0.0
2016-Feb-09 10:32N 51°58' E 001°18'0 0.0
2016-Feb-09 09:32N 51°58' E 001°18'0 0.0
2016-Feb-09 08:32N 51°58' E 001°18'0 0.0
2016-Feb-09 07:32N 51°58' E 001°18'0 0.0
2016-Feb-09 06:32N 51°58' E 001°18'0 0.0
2016-Feb-09 05:32N 51°58' E 001°18'0 0.0
2016-Feb-09 04:32N 51°58' E 001°18'0 0.0
2016-Feb-09 03:32N 51°58' E 001°18'0 0.0
2016-Feb-09 02:32N 51°58' E 001°18'0 0.0
2016-Feb-09 01:32N 51°58' E 001°18'0 0.0
2016-Feb-09 00:32N 51°58' E 001°18'0 0.0
2016-Feb-08 23:32N 51°58' E 001°18'0 0.0
2016-Feb-08 22:32N 51°58' E 001°18'0 0.0
2016-Feb-08 21:32N 51°58' E 001°18'0 0.0
2016-Feb-08 20:32N 51°58' E 001°18'0 0.0
2016-Feb-08 19:32N 51°58' E 001°18'0 0.0
2016-Feb-08 18:32N 51°58' E 001°18'0 0.0
2016-Feb-08 17:32N 51°58' E 001°18'0 0.0
2016-Feb-08 16:32N 51°58' E 001°18'0 0.0
2016-Feb-08 15:32N 51°58' E 001°18'0 0.0
2016-Feb-08 14:32N 51°58' E 001°18'0 0.0
2016-Feb-08 13:32N 51°58' E 001°18'0 0.0
2016-Feb-08 12:32N 51°58' E 001°18'0 0.0
2016-Feb-08 11:32N 51°58' E 001°18'0 0.0
2016-Feb-08 10:32N 51°58' E 001°18'0 0.0
2016-Feb-08 09:32N 51°58' E 001°18'0 0.0
2016-Feb-08 08:32N 51°58' E 001°18'0 0.0
2016-Feb-08 07:32N 51°58' E 001°18'0 0.0
2016-Feb-08 06:32N 51°58' E 001°18'0 0.0
2016-Feb-08 05:29N 51°58' E 001°18'0 0.0
2016-Feb-08 04:32N 51°58' E 001°18'0 0.0
2016-Feb-08 03:32N 51°58' E 001°18'0 0.0
2016-Feb-08 02:32N 51°58' E 001°18'0 0.0
2016-Feb-08 01:32N 51°58' E 001°18'0 0.0
2016-Feb-08 00:32N 51°58' E 001°18'0 0.0
2016-Feb-07 23:32N 51°58' E 001°18'0 0.0
2016-Feb-07 22:32N 51°58' E 001°18'0 0.0
2016-Feb-07 21:32N 51°58' E 001°18'0 0.0
2016-Feb-07 20:32N 51°58' E 001°18'0 0.0
2016-Feb-07 19:32N 51°58' E 001°18'0 0.0
2016-Feb-07 18:32N 51°58' E 001°18'0 0.0
2016-Feb-07 17:32N 51°58' E 001°18'0 0.0
2016-Feb-07 16:32N 51°58' E 001°18'0 0.0
2016-Feb-07 15:32N 51°58' E 001°18'0 0.0
2016-Feb-07 14:32N 51°58' E 001°18'0 0.0
2016-Feb-07 13:32N 51°58' E 001°18'0 0.0
2016-Feb-07 12:32N 51°58' E 001°18'0 0.0
2016-Feb-07 11:32N 51°58' E 001°18'0 0.0
2016-Feb-07 10:32N 51°58' E 001°18'0 0.0
2016-Feb-07 09:32N 51°58' E 001°18'0 0.0
2016-Feb-07 08:32N 51°58' E 001°18'0 0.0
2016-Feb-07 07:32N 51°58' E 001°18'0 0.0
2016-Feb-07 06:32N 51°58' E 001°18'0 0.0
2016-Feb-07 05:32N 51°58' E 001°18'0 0.0
2016-Feb-07 04:32N 51°58' E 001°18'0 0.0
2016-Feb-07 03:32N 51°58' E 001°18'0 0.0
2016-Feb-07 02:32N 51°58' E 001°18'0 0.0
2016-Feb-07 01:32N 51°58' E 001°18'0 0.0
2016-Feb-07 00:32N 51°58' E 001°18'0 0.0
2016-Feb-06 23:32N 51°58' E 001°18'0 0.0
2016-Feb-06 22:33N 51°58' E 001°18'0 0.0
2016-Feb-06 21:33N 51°58' E 001°18'0 0.0
2016-Feb-06 20:33N 51°58' E 001°18'0 0.0
2016-Feb-06 19:33N 51°58' E 001°18'0 0.0
2016-Feb-06 18:33N 51°58' E 001°18'0 0.0
2016-Feb-06 17:33N 51°58' E 001°18'0 0.0
2016-Feb-06 16:33N 51°58' E 001°18'0 0.0
2016-Feb-06 15:33N 51°58' E 001°18'0 0.0
2016-Feb-06 14:34N 51°58' E 001°18'1 0.6
2016-Feb-06 13:33N 51°57' E 001°18'10 9.8
2016-Feb-06 12:33N 51°55' E 001°34'7 6.7
2016-Feb-06 11:33N 51°52' E 001°43'6 5.6
2016-Feb-06 10:33N 51°48' E 001°51'5 5.0
2016-Feb-06 09:34N 51°43' E 001°51'9 9.2
2016-Feb-06 08:34N 51°34' E 001°53'9 9.0
2016-Feb-06 07:34N 51°27' E 002°00'1817.6
2016-Feb-06 06:33N 51°23' E 002°28'1717.2
2016-Feb-06 05:33N 51°23' E 002°55'1919.1
2016-Feb-06 04:33N 51°25' E 003°26'1211.9
2016-Feb-06 03:34N 51°22' E 003°44'1211.6
2016-Feb-06 02:34N 51°23' E 004°03'9 9.1
2016-Feb-06 01:33N 51°21' E 004°17'0 0.0
2016-Feb-06 00:32N 51°21' E 004°17'2 2.1
2016-Feb-05 23:33N 51°20' E 004°20'0 0.3
2016-Feb-05 22:32N 51°20' E 004°21'0 0.0
2016-Feb-05 21:32N 51°20' E 004°21'0 0.0
2016-Feb-05 20:32N 51°20' E 004°21'0 0.0
2016-Feb-05 19:29N 51°20' E 004°21'0 0.0
2016-Feb-05 18:32N 51°20' E 004°21'0 0.0
2016-Feb-05 17:32N 51°20' E 004°21'0 0.0
2016-Feb-05 16:26N 51°20' E 004°21'0 0.0
2016-Feb-05 15:29N 51°20' E 004°21'0 0.0
2016-Feb-05 14:32N 51°20' E 004°21'0 0.0
2016-Feb-05 13:32N 51°20' E 004°21'0 0.0
2016-Feb-05 12:32N 51°20' E 004°21'0 0.0
2016-Feb-05 11:32N 51°20' E 004°21'0 0.0
2016-Feb-05 10:32N 51°20' E 004°21'0 0.0
2016-Feb-05 09:32N 51°20' E 004°21'0 0.0
2016-Feb-05 08:32N 51°20' E 004°21'0 0.0
2016-Feb-05 07:32N 51°20' E 004°21'0 0.0
2016-Feb-05 06:32N 51°20' E 004°21'0 0.0
2016-Feb-05 05:32N 51°20' E 004°21'0 0.0
2016-Feb-05 04:32N 51°20' E 004°21'0 0.0
2016-Feb-05 03:32N 51°20' E 004°21'0 0.0
2016-Feb-05 02:32N 51°20' E 004°21'0 0.0
2016-Feb-05 01:32N 51°20' E 004°21'0 0.0
2016-Feb-05 00:32N 51°20' E 004°21'0 0.0
2016-Feb-04 23:32N 51°20' E 004°21'0 0.0
2016-Feb-04 22:32N 51°20' E 004°21'0 0.0
2016-Feb-04 21:32N 51°20' E 004°21'0 0.0
2016-Feb-04 20:33N 51°20' E 004°21'1 1.2
2016-Feb-04 19:33N 51°19' E 004°19'2 1.7
2016-Feb-04 18:34N 51°21' E 004°17'1 1.2
2016-Feb-04 17:33N 51°21' E 004°15'9 9.3
2016-Feb-04 16:33N 51°25' E 004°02'9 9.3
2016-Feb-04 15:33N 51°21' E 003°49'1010.3
2016-Feb-04 14:33N 51°26' E 003°34'1010.4
2016-Feb-04 13:33N 51°24' E 003°17'1111.4
2016-Feb-04 12:33N 51°26' E 002°59'1616.4
2016-Feb-04 11:33N 51°41' E 003°12'6415.3
2016-Feb-04 07:25N 52°42' E 003°39'1517.9
2016-Feb-04 06:33N 52°54' E 003°55'1817.7
2016-Feb-04 05:34N 53°05' E 004°18'2617.3
2016-Feb-04 04:04N 53°28' E 004°39'1016.6
2016-Feb-04 03:26N 53°33' E 004°54'1416.2
2016-Feb-04 02:33N 53°38' E 005°17'1616.4
2016-Feb-04 01:33N 53°43' E 005°43'1716.6
2016-Feb-04 00:33N 53°48' E 006°10'1717.2
2016-Feb-03 23:33N 53°53' E 006°37'1817.7
2016-Feb-03 22:33N 53°57' E 007°07'1717.2
2016-Feb-03 21:33N 54°00' E 007°35'1615.9
2016-Feb-03 20:33N 53°51' E 007°58'1817.5
2016-Feb-03 19:33N 53°41' E 008°22'9 8.6
2016-Feb-03 18:33N 53°35' E 008°32'0 0.0
2016-Feb-03 17:33N 53°35' E 008°32'0 0.0
2016-Feb-03 16:33N 53°35' E 008°32'0 0.0
2016-Feb-03 15:33N 53°35' E 008°32'0 0.0
2016-Feb-03 14:33N 53°35' E 008°32'0 0.0
2016-Feb-03 13:33N 53°35' E 008°32'0 0.0
2016-Feb-03 12:33N 53°35' E 008°32'0 0.0
2016-Feb-03 11:33N 53°35' E 008°32'0 0.0
2016-Feb-03 10:33N 53°35' E 008°32'0 0.0
2016-Feb-03 09:33N 53°35' E 008°32'0 0.0
2016-Feb-03 08:33N 53°35' E 008°32'0 0.0
2016-Feb-03 07:33N 53°35' E 008°32'0 0.0
2016-Feb-03 06:33N 53°35' E 008°32'0 0.0
2016-Feb-03 05:33N 53°35' E 008°32'0 0.0
2016-Feb-03 04:33N 53°35' E 008°32'0 0.0
2016-Feb-03 03:33N 53°35' E 008°32'0 0.0
2016-Feb-03 02:33N 53°35' E 008°32'0 0.0
2016-Feb-03 01:33N 53°35' E 008°32'0 0.0
2016-Feb-03 00:33N 53°35' E 008°32'0 0.0
2016-Feb-02 23:33N 53°35' E 008°32'0 0.0
2016-Feb-02 22:33N 53°35' E 008°32'1 0.8
2016-Feb-02 21:33N 53°35' E 008°31'9 9.1
2016-Feb-02 20:33N 53°42' E 008°20'1313.4
2016-Feb-02 19:34N 53°50' E 008°03'1010.0
2016-Feb-02 18:33N 53°53' E 007°46'4 3.6
2016-Feb-02 17:33N 53°54' E 007°41'4 3.6
2016-Feb-02 16:34N 53°54' E 007°35'1818.1
2016-Feb-02 15:33N 53°51' E 007°05'1918.6
2016-Feb-02 14:33N 53°47' E 006°34'1919.0
2016-Feb-02 13:33N 53°42' E 006°03'2020.3
2016-Feb-02 12:34N 53°36' E 005°30'2120.7
2016-Feb-02 11:33N 53°28' E 004°57'2019.2
2016-Feb-02 10:31N 53°13' E 004°36'2020.3
2016-Feb-02 09:33N 52°57' E 004°19'2019.5
2016-Feb-02 08:33N 52°40' E 004°00'2119.7
2016-Feb-02 07:30N 52°26' E 003°37'6019.3
2016-Feb-02 04:22N 51°41' E 002°30'1518.5
2016-Feb-02 03:34N 51°30' E 002°14'1818.2
2016-Feb-02 02:33N 51°16' E 001°54'1817.9
2016-Feb-02 01:34N 51°03' E 001°36'2117.5
2016-Feb-02 00:23N 50°44' E 001°21'11217.5
2016-Feb-01 18:00N 50°06' W 001°24'   250 / 261022.0 5.4 13.0 9.112.0
Track history (hours):
 
Tides and Currents Weather Stations Pressure Air Temp Water Temp Dewpoint Dewpoint Depression Visibility Wind Speed Wind Dir Waves Ship Positions

Maersk Iowa

Owner: FARRELL LINES INC, Norfolk, VA. More information available from US FCC via Universal Licensing System and Coast Guard Vessel Documentation Center.

Last reported at 2016-Feb-11 12:33 UTC. Time now 2016-Feb-11 12:57 UTC.
Position N 49°28' E 000°09'.

Length 292 m; draft 11.8 m.

Type: Ship (hazmat cat A). MMSI: 367606000.

Date/timePositionNaut miles runAvg speedWind from/ knotsBaromVisibWave heightAir tempDewpointWater temp
2016-Feb-11 12:33N 49°28' E 000°09'1 1.4
2016-Feb-11 11:33N 49°28' E 000°07'1111.2
2016-Feb-11 10:33N 49°34' W 000°07'4 3.6
2016-Feb-11 09:33N 49°32' W 000°04'9 9.4
2016-Feb-11 08:33N 49°27' E 000°09'2 1.8
2016-Feb-11 07:33N 49°28' E 000°06'1010.4
2016-Feb-11 06:33N 49°34' W 000°07'1 1.3
2016-Feb-11 05:33N 49°34' W 000°08'0 0.0
2016-Feb-11 04:33N 49°34' W 000°08'0 0.1
2016-Feb-11 03:33N 49°35' W 000°08'0 0.1
2016-Feb-11 02:33N 49°35' W 000°08'0 0.2
2016-Feb-11 01:33N 49°35' W 000°08'0 0.0
2016-Feb-11 00:33N 49°35' W 000°08'0 0.0
2016-Feb-10 23:33N 49°35' W 000°08'0 0.0
2016-Feb-10 22:33N 49°35' W 000°08'0 0.1
2016-Feb-10 21:33N 49°35' W 000°08'0 0.1
2016-Feb-10 20:33N 49°34' W 000°08'0 0.1
2016-Feb-10 19:33N 49°34' W 000°08'0 0.2
2016-Feb-10 18:33N 49°34' W 000°08'0 0.2
2016-Feb-10 17:33N 49°35' W 000°08'0 0.1
2016-Feb-10 16:33N 49°35' W 000°08'0 0.2
2016-Feb-10 15:33N 49°35' W 000°08'3 3.2
2016-Feb-10 14:33N 49°37' W 000°05'1211.4
2016-Feb-10 13:33N 49°48' E 000°02'1211.9
2016-Feb-10 12:33N 49°57' E 000°13'52 7.9
2016-Feb-10 06:00N 50°42' E 000°54'19 7.8 270 / 30995.010.8 9.0 4.511.0
2016-Feb-10 03:33N 50°54' E 001°17'7 6.1
2016-Feb-10 02:21N 50°60' E 001°25'4 4.9
2016-Feb-10 01:33N 51°03' E 001°29'5 4.5
2016-Feb-10 00:33N 51°06' E 001°33'5 5.2
2016-Feb-09 23:33N 51°10' E 001°38'7 7.1
2016-Feb-09 22:33N 51°17' E 001°41'10 9.7
2016-Feb-09 21:33N 51°27' E 001°45'1010.3
2016-Feb-09 20:33N 51°37' E 001°45'1010.0
2016-Feb-09 19:33N 51°47' E 001°43'8 8.0
2016-Feb-09 18:33N 51°52' E 001°34'9 8.7
2016-Feb-09 17:33N 51°55' E 001°20'3 2.7
2016-Feb-09 16:32N 51°58' E 001°18'0 0.0
2016-Feb-09 15:32N 51°58' E 001°18'0 0.0
2016-Feb-09 14:32N 51°58' E 001°18'0 0.0
2016-Feb-09 13:32N 51°58' E 001°18'0 0.0
2016-Feb-09 12:32N 51°58' E 001°18'0 0.0
2016-Feb-09 11:32N 51°58' E 001°18'0 0.0
2016-Feb-09 10:32N 51°58' E 001°18'0 0.0
2016-Feb-09 09:32N 51°58' E 001°18'0 0.0
2016-Feb-09 08:32N 51°58' E 001°18'0 0.0
2016-Feb-09 07:32N 51°58' E 001°18'0 0.0
2016-Feb-09 06:32N 51°58' E 001°18'0 0.0
2016-Feb-09 05:32N 51°58' E 001°18'0 0.0
2016-Feb-09 04:32N 51°58' E 001°18'0 0.0
2016-Feb-09 03:32N 51°58' E 001°18'0 0.0
2016-Feb-09 02:32N 51°58' E 001°18'0 0.0
2016-Feb-09 01:32N 51°58' E 001°18'0 0.0
2016-Feb-09 00:32N 51°58' E 001°18'0 0.0
2016-Feb-08 23:32N 51°58' E 001°18'0 0.0
2016-Feb-08 22:32N 51°58' E 001°18'0 0.0
2016-Feb-08 21:32N 51°58' E 001°18'0 0.0
2016-Feb-08 20:32N 51°58' E 001°18'0 0.0
2016-Feb-08 19:32N 51°58' E 001°18'0 0.0
2016-Feb-08 18:32N 51°58' E 001°18'0 0.0
2016-Feb-08 17:32N 51°58' E 001°18'0 0.0
2016-Feb-08 16:32N 51°58' E 001°18'0 0.0
2016-Feb-08 15:32N 51°58' E 001°18'0 0.0
2016-Feb-08 14:32N 51°58' E 001°18'0 0.0
2016-Feb-08 13:32N 51°58' E 001°18'0 0.0
2016-Feb-08 12:32N 51°58' E 001°18'0 0.0
2016-Feb-08 11:32N 51°58' E 001°18'0 0.0
2016-Feb-08 10:32N 51°58' E 001°18'0 0.0
2016-Feb-08 09:32N 51°58' E 001°18'0 0.0
2016-Feb-08 08:32N 51°58' E 001°18'0 0.0
2016-Feb-08 07:32N 51°58' E 001°18'0 0.0
2016-Feb-08 06:32N 51°58' E 001°18'0 0.0
2016-Feb-08 05:29N 51°58' E 001°18'0 0.0
2016-Feb-08 04:32N 51°58' E 001°18'0 0.0
2016-Feb-08 03:32N 51°58' E 001°18'0 0.0
2016-Feb-08 02:32N 51°58' E 001°18'0 0.0
2016-Feb-08 01:32N 51°58' E 001°18'0 0.0
2016-Feb-08 00:32N 51°58' E 001°18'0 0.0
2016-Feb-07 23:32N 51°58' E 001°18'0 0.0
2016-Feb-07 22:32N 51°58' E 001°18'0 0.0
2016-Feb-07 21:32N 51°58' E 001°18'0 0.0
2016-Feb-07 20:32N 51°58' E 001°18'0 0.0
2016-Feb-07 19:32N 51°58' E 001°18'0 0.0
2016-Feb-07 18:32N 51°58' E 001°18'0 0.0
2016-Feb-07 17:32N 51°58' E 001°18'0 0.0
2016-Feb-07 16:32N 51°58' E 001°18'0 0.0
2016-Feb-07 15:32N 51°58' E 001°18'0 0.0
2016-Feb-07 14:32N 51°58' E 001°18'0 0.0
2016-Feb-07 13:32N 51°58' E 001°18'0 0.0
2016-Feb-07 12:32N 51°58' E 001°18'0 0.0
2016-Feb-07 11:32N 51°58' E 001°18'0 0.0
2016-Feb-07 10:32N 51°58' E 001°18'0 0.0
2016-Feb-07 09:32N 51°58' E 001°18'0 0.0
2016-Feb-07 08:32N 51°58' E 001°18'0 0.0
2016-Feb-07 07:32N 51°58' E 001°18'0 0.0
2016-Feb-07 06:32N 51°58' E 001°18'0 0.0
2016-Feb-07 05:32N 51°58' E 001°18'0 0.0
2016-Feb-07 04:32N 51°58' E 001°18'0 0.0
2016-Feb-07 03:32N 51°58' E 001°18'0 0.0
2016-Feb-07 02:32N 51°58' E 001°18'0 0.0
2016-Feb-07 01:32N 51°58' E 001°18'0 0.0
2016-Feb-07 00:32N 51°58' E 001°18'0 0.0
2016-Feb-06 23:32N 51°58' E 001°18'0 0.0
2016-Feb-06 22:33N 51°58' E 001°18'0 0.0
2016-Feb-06 21:33N 51°58' E 001°18'0 0.0
2016-Feb-06 20:33N 51°58' E 001°18'0 0.0
2016-Feb-06 19:33N 51°58' E 001°18'0 0.0
2016-Feb-06 18:33N 51°58' E 001°18'0 0.0
2016-Feb-06 17:33N 51°58' E 001°18'0 0.0
2016-Feb-06 16:33N 51°58' E 001°18'0 0.0
2016-Feb-06 15:33N 51°58' E 001°18'0 0.0
2016-Feb-06 14:34N 51°58' E 001°18'1 0.6
2016-Feb-06 13:33N 51°57' E 001°18'10 9.8
2016-Feb-06 12:33N 51°55' E 001°34'7 6.7
2016-Feb-06 11:33N 51°52' E 001°43'6 5.6
2016-Feb-06 10:33N 51°48' E 001°51'5 5.0
2016-Feb-06 09:34N 51°43' E 001°51'9 9.2
2016-Feb-06 08:34N 51°34' E 001°53'9 9.0
2016-Feb-06 07:34N 51°27' E 002°00'1817.6
2016-Feb-06 06:33N 51°23' E 002°28'1717.2
2016-Feb-06 05:33N 51°23' E 002°55'1919.1
2016-Feb-06 04:33N 51°25' E 003°26'1211.9
2016-Feb-06 03:34N 51°22' E 003°44'1211.6
2016-Feb-06 02:34N 51°23' E 004°03'9 9.1
2016-Feb-06 01:33N 51°21' E 004°17'0 0.0
2016-Feb-06 00:32N 51°21' E 004°17'2 2.1
2016-Feb-05 23:33N 51°20' E 004°20'0 0.3
2016-Feb-05 22:32N 51°20' E 004°21'0 0.0
2016-Feb-05 21:32N 51°20' E 004°21'0 0.0
2016-Feb-05 20:32N 51°20' E 004°21'0 0.0
2016-Feb-05 19:29N 51°20' E 004°21'0 0.0
2016-Feb-05 18:32N 51°20' E 004°21'0 0.0
2016-Feb-05 17:32N 51°20' E 004°21'0 0.0
2016-Feb-05 16:26N 51°20' E 004°21'0 0.0
2016-Feb-05 15:29N 51°20' E 004°21'0 0.0
2016-Feb-05 14:32N 51°20' E 004°21'0 0.0
2016-Feb-05 13:32N 51°20' E 004°21'0 0.0
2016-Feb-05 12:32N 51°20' E 004°21'0 0.0
2016-Feb-05 11:32N 51°20' E 004°21'0 0.0
2016-Feb-05 10:32N 51°20' E 004°21'0 0.0
2016-Feb-05 09:32N 51°20' E 004°21'0 0.0
2016-Feb-05 08:32N 51°20' E 004°21'0 0.0
2016-Feb-05 07:32N 51°20' E 004°21'0 0.0
2016-Feb-05 06:32N 51°20' E 004°21'0 0.0
2016-Feb-05 05:32N 51°20' E 004°21'0 0.0
2016-Feb-05 04:32N 51°20' E 004°21'0 0.0
2016-Feb-05 03:32N 51°20' E 004°21'0 0.0
2016-Feb-05 02:32N 51°20' E 004°21'0 0.0
2016-Feb-05 01:32N 51°20' E 004°21'0 0.0
2016-Feb-05 00:32N 51°20' E 004°21'0 0.0
2016-Feb-04 23:32N 51°20' E 004°21'0 0.0
2016-Feb-04 22:32N 51°20' E 004°21'0 0.0
2016-Feb-04 21:32N 51°20' E 004°21'0 0.0
2016-Feb-04 20:33N 51°20' E 004°21'1 1.2
2016-Feb-04 19:33N 51°19' E 004°19'2 1.7
2016-Feb-04 18:34N 51°21' E 004°17'1 1.2
2016-Feb-04 17:33N 51°21' E 004°15'9 9.3
2016-Feb-04 16:33N 51°25' E 004°02'9 9.3
2016-Feb-04 15:33N 51°21' E 003°49'1010.3
2016-Feb-04 14:33N 51°26' E 003°34'1010.4
2016-Feb-04 13:33N 51°24' E 003°17'1111.4
2016-Feb-04 12:33N 51°26' E 002°59'1616.4
2016-Feb-04 11:33N 51°41' E 003°12'6415.3
2016-Feb-04 07:25N 52°42' E 003°39'1517.9
2016-Feb-04 06:33N 52°54' E 003°55'1817.7
2016-Feb-04 05:34N 53°05' E 004°18'2617.3
2016-Feb-04 04:04N 53°28' E 004°39'1016.6
2016-Feb-04 03:26N 53°33' E 004°54'1416.2
2016-Feb-04 02:33N 53°38' E 005°17'1616.4
2016-Feb-04 01:33N 53°43' E 005°43'1716.6
2016-Feb-04 00:33N 53°48' E 006°10'1717.2
2016-Feb-03 23:33N 53°53' E 006°37'1817.7
2016-Feb-03 22:33N 53°57' E 007°07'1717.2
2016-Feb-03 21:33N 54°00' E 007°35'1615.9
2016-Feb-03 20:33N 53°51' E 007°58'1817.5
2016-Feb-03 19:33N 53°41' E 008°22'9 8.6
2016-Feb-03 18:33N 53°35' E 008°32'0 0.0
2016-Feb-03 17:33N 53°35' E 008°32'0 0.0
2016-Feb-03 16:33N 53°35' E 008°32'0 0.0
2016-Feb-03 15:33N 53°35' E 008°32'0 0.0
2016-Feb-03 14:33N 53°35' E 008°32'0 0.0
2016-Feb-03 13:33N 53°35' E 008°32'0 0.0
2016-Feb-03 12:33N 53°35' E 008°32'0 0.0
2016-Feb-03 11:33N 53°35' E 008°32'0 0.0
2016-Feb-03 10:33N 53°35' E 008°32'0 0.0
2016-Feb-03 09:33N 53°35' E 008°32'0 0.0
2016-Feb-03 08:33N 53°35' E 008°32'0 0.0
2016-Feb-03 07:33N 53°35' E 008°32'0 0.0
2016-Feb-03 06:33N 53°35' E 008°32'0 0.0
2016-Feb-03 05:33N 53°35' E 008°32'0 0.0
2016-Feb-03 04:33N 53°35' E 008°32'0 0.0
2016-Feb-03 03:33N 53°35' E 008°32'0 0.0
2016-Feb-03 02:33N 53°35' E 008°32'0 0.0
2016-Feb-03 01:33N 53°35' E 008°32'0 0.0
2016-Feb-03 00:33N 53°35' E 008°32'0 0.0
2016-Feb-02 23:33N 53°35' E 008°32'0 0.0
2016-Feb-02 22:33N 53°35' E 008°32'1 0.8
2016-Feb-02 21:33N 53°35' E 008°31'9 9.1
2016-Feb-02 20:33N 53°42' E 008°20'1313.4
2016-Feb-02 19:34N 53°50' E 008°03'1010.0
2016-Feb-02 18:33N 53°53' E 007°46'4 3.6
2016-Feb-02 17:33N 53°54' E 007°41'4 3.6
2016-Feb-02 16:34N 53°54' E 007°35'1818.1
2016-Feb-02 15:33N 53°51' E 007°05'1918.6
2016-Feb-02 14:33N 53°47' E 006°34'1919.0
2016-Feb-02 13:33N 53°42' E 006°03'2020.3
2016-Feb-02 12:34N 53°36' E 005°30'2120.7
2016-Feb-02 11:33N 53°28' E 004°57'2019.2
2016-Feb-02 10:31N 53°13' E 004°36'2020.3
2016-Feb-02 09:33N 52°57' E 004°19'2019.5
2016-Feb-02 08:33N 52°40' E 004°00'2119.7
2016-Feb-02 07:30N 52°26' E 003°37'6019.3
2016-Feb-02 04:22N 51°41' E 002°30'1518.5
2016-Feb-02 03:34N 51°30' E 002°14'1818.2
2016-Feb-02 02:33N 51°16' E 001°54'1817.9
2016-Feb-02 01:34N 51°03' E 001°36'2117.5
2016-Feb-02 00:23N 50°44' E 001°21'11217.5
2016-Feb-01 18:00N 50°06' W 001°24'   250 / 261022.0 5.4 13.0 9.112.0

Dump ship's entire track history